createdAt,value
2022-10-05T19:13:41.543Z,78.02
2022-10-05T19:17:01.342Z,75.16
2022-10-05T19:20:19.147Z,74.79
2022-10-05T19:23:44.658Z,74.42
2022-10-05T19:27:02.346Z,73.55
2022-10-05T19:30:19.627Z,74.35
2022-10-05T19:33:36.875Z,73.43
2022-10-05T19:36:52.734Z,73.02
2022-10-05T19:40:01.708Z,73.33
2022-10-05T19:43:22.274Z,73.35
2022-10-05T19:46:45.256Z,73.65
2022-10-05T19:49:58.179Z,73.79
2022-10-05T19:53:08.189Z,73.13
2022-10-05T19:56:20.242Z,74.04
2022-10-05T19:59:27.628Z,73.58
2022-10-05T20:02:37.571Z,73.65
2022-10-05T20:05:45.074Z,73.96
2022-10-05T20:08:51.479Z,74.24
2022-10-05T20:11:55.484Z,74.92
2022-10-05T20:15:27.265Z,74.68
2022-10-05T20:19:07.667Z,73.48
2022-10-05T20:22:27.695Z,73.36
2022-10-05T20:25:32.423Z,73.21
2022-10-05T20:28:36.139Z,72.69
2022-10-05T20:31:39.817Z,72.31
2022-10-05T20:34:46.671Z,71.98
2022-10-05T20:37:51.017Z,71.29
2022-10-05T20:40:54.664Z,70.02
2022-10-05T20:43:58.324Z,68.85
2022-10-05T20:47:02.109Z,68.50
2022-10-05T20:50:10.139Z,68.63
2022-10-05T20:53:13.857Z,68.71
2022-10-05T20:56:19.872Z,68.44
2022-10-05T20:59:24.558Z,68.54
2022-10-05T21:02:28.913Z,67.44
2022-10-05T21:05:34.632Z,68.11
2022-10-05T21:08:38.368Z,67.21
2022-10-05T21:11:42.191Z,67.59
2022-10-05T21:14:46.399Z,67.69
2022-10-05T21:17:50.813Z,66.89
2022-10-05T21:20:59.857Z,66.64
2022-10-05T21:24:06.570Z,66.03
2022-10-05T21:27:10.734Z,65.65
2022-10-05T21:30:14.605Z,66.50
